createdAt,value
2018-11-25T00:00:16.792Z,6.70
2018-11-25T00:02:45.953Z,6.70
2018-11-25T00:05:15.204Z,6.70
2018-11-25T00:07:44.004Z,6.70
2018-11-25T00:10:12.774Z,6.70
2018-11-25T00:12:41.833Z,6.80
2018-11-25T00:15:10.929Z,6.70
2018-11-25T00:17:39.767Z,6.70
2018-11-25T00:20:12.709Z,6.70
2018-11-25T00:22:42.224Z,6.70
2018-11-25T00:25:12.622Z,6.70
2018-11-25T00:27:42.042Z,6.80
2018-11-25T00:30:17.274Z,6.80
2018-11-25T00:32:46.348Z,6.70
2018-11-25T00:35:16.528Z,6.70
2018-11-25T00:37:48.631Z,6.70
2018-11-25T00:40:16.025Z,6.70
2018-11-25T00:42:45.308Z,6.80
2018-11-25T00:45:17.409Z,6.80
2018-11-25T00:47:46.359Z,6.70
2018-11-25T00:50:15.701Z,6.80
2018-11-25T00:52:44.985Z,6.70
2018-11-25T00:55:17.210Z,6.70
2018-11-25T00:57:46.326Z,6.80
2018-11-25T01:00:20.434Z,6.70
2018-11-25T01:02:50.530Z,6.70
2018-11-25T01:05:20.799Z,6.70
2018-11-25T01:07:54.138Z,6.60
2018-11-25T01:10:23.048Z,6.60
2018-11-25T01:12:52.043Z,6.60
2018-11-25T01:15:21.218Z,6.70
2018-11-25T01:17:50.470Z,6.60
2018-11-25T01:20:22.944Z,6.60
2018-11-25T01:22:52.146Z,6.60
2018-11-25T01:25:21.689Z,6.60
2018-11-25T01:27:51.103Z,6.60
2018-11-25T01:30:20.476Z,6.60
2018-11-25T01:32:49.556Z,6.60
2018-11-25T01:35:18.522Z,6.60
2018-11-25T01:37:47.646Z,6.60
2018-11-25T01:40:18.078Z,6.60
2018-11-25T01:42:47.856Z,6.60
2018-11-25T01:45:17.384Z,6.60
2018-11-25T01:47:46.849Z,6.60
2018-11-25T01:50:16.518Z,6.60
2018-11-25T01:52:46.449Z,6.60
2018-11-25T01:55:16.582Z,6.60
2018-11-25T01:57:45.704Z,6.60
2018-11-25T02:00:17.201Z,6.60
2018-11-25T02:02:46.432Z,6.60
2018-11-25T02:05:15.744Z,6.50
2018-11-25T02:07:45.018Z,6.60
2018-11-25T02:10:15.272Z,6.50
2018-11-25T02:12:44.411Z,6.50
2018-11-25T02:15:14.640Z,6.60
2018-11-25T02:17:43.622Z,6.60
2018-11-25T02:20:15.192Z,6.50
2018-11-25T02:22:44.655Z,6.50
2018-11-25T02:25:13.961Z,6.50
2018-11-25T02:27:43.358Z,6.50
2018-11-25T02:30:14.190Z,6.50
2018-11-25T02:32:43.242Z,6.50
2018-11-25T02:35:13.070Z,6.40
2018-11-25T02:37:42.432Z,6.50
2018-11-25T02:40:12.430Z,6.50
2018-11-25T02:42:41.336Z,6.50
2018-11-25T02:45:15.234Z,6.50
2018-11-25T02:47:44.382Z,6.50
2018-11-25T02:50:32.587Z,6.50
2018-11-25T02:53:04.040Z,6.40
2018-11-25T02:55:32.878Z,6.40
2018-11-25T02:58:02.017Z,6.40
2018-11-25T03:00:31.326Z,6.40
2018-11-25T03:03:01.252Z,6.40
2018-11-25T03:05:30.442Z,6.40
2018-11-25T03:07:59.584Z,6.40
2018-11-25T03:10:28.420Z,6.40
2018-11-25T03:12:57.822Z,6.30
2018-11-25T03:15:26.783Z,6.30
2018-11-25T03:17:56.159Z,6.20
2018-11-25T03:20:25.397Z,6.30
2018-11-25T03:22:54.346Z,6.30
2018-11-25T03:25:23.821Z,6.20
2018-11-25T03:27:53.110Z,6.20
2018-11-25T03:30:22.530Z,6.10
2018-11-25T03:32:52.828Z,6.20
2018-11-25T03:35:21.973Z,6.20
2018-11-25T03:37:51.299Z,6.10
2018-11-25T03:40:20.762Z,6.10
2018-11-25T03:42:49.826Z,6.10
2018-11-25T03:45:20.261Z,6.10
2018-11-25T03:47:49.250Z,6.10
2018-11-25T03:50:18.247Z,6.10
2018-11-25T03:52:47.521Z,6.10
2018-11-25T03:55:17.166Z,6.10
2018-11-25T03:57:46.489Z,6.20
2018-11-25T04:00:19.572Z,6.10
2018-11-25T04:02:48.912Z,6.10
2018-11-25T04:05:18.470Z,6.10
2018-11-25T04:07:47.745Z,6.00
2018-11-25T04:10:18.632Z,6.00
2018-11-25T04:12:47.856Z,6.00
2018-11-25T04:15:18.083Z,6.00
2018-11-25T04:17:47.152Z,6.00
2018-11-25T04:20:17.922Z,6.00
2018-11-25T04:22:46.768Z,6.00
2018-11-25T04:25:15.881Z,6.00
2018-11-25T04:27:45.099Z,6.00
2018-11-25T04:30:17.165Z,6.00
2018-11-25T04:32:46.924Z,6.00
2018-11-25T04:35:16.034Z,6.00
2018-11-25T04:37:45.722Z,6.10
2018-11-25T04:40:16.926Z,6.00
2018-11-25T04:42:46.309Z,6.00
2018-11-25T04:45:15.981Z,6.00
2018-11-25T04:47:46.205Z,5.90
2018-11-25T04:50:17.120Z,5.90
2018-11-25T04:52:46.156Z,5.90
2018-11-25T04:55:15.186Z,5.80
2018-11-25T04:57:51.559Z,5.80
2018-11-25T05:00:20.851Z,5.80
2018-11-25T05:02:50.622Z,5.80
2018-11-25T05:05:19.843Z,5.90
2018-11-25T05:07:49.405Z,5.80
2018-11-25T05:10:18.837Z,5.80
2018-11-25T05:12:48.457Z,5.80
2018-11-25T05:15:20.415Z,5.80
2018-11-25T05:17:49.784Z,5.80
2018-11-25T05:20:19.579Z,5.90
2018-11-25T05:22:48.667Z,5.90
2018-11-25T05:25:21.294Z,5.90
2018-11-25T05:27:50.796Z,5.90
2018-11-25T05:30:20.755Z,5.80
2018-11-25T05:32:50.084Z,5.80
2018-11-25T05:35:20.868Z,5.90
2018-11-25T05:37:51.181Z,6.00
2018-11-25T05:40:20.080Z,6.00
2018-11-25T05:42:48.936Z,5.90
2018-11-25T05:45:19.864Z,6.00
2018-11-25T05:47:50.108Z,5.90
2018-11-25T05:50:19.590Z,6.00
2018-11-25T05:52:48.755Z,6.00
2018-11-25T05:55:18.039Z,6.00
2018-11-25T05:57:47.630Z,6.00
2018-11-25T06:00:19.425Z,6.00
2018-11-25T06:02:48.830Z,6.00
2018-11-25T06:05:18.023Z,6.10
2018-11-25T06:07:47.629Z,6.10
2018-11-25T06:10:16.710Z,6.10
2018-11-25T06:12:45.902Z,6.10
2018-11-25T06:15:15.872Z,6.10
2018-11-25T06:17:45.035Z,6.10
2018-11-25T06:20:18.177Z,6.00
2018-11-25T06:22:47.396Z,6.00
2018-11-25T06:25:18.234Z,6.10
2018-11-25T06:27:47.250Z,6.10
2018-11-25T06:30:19.188Z,6.00
2018-11-25T06:32:48.476Z,6.00
2018-11-25T06:35:18.671Z,6.00
2018-11-25T06:37:47.922Z,6.00
2018-11-25T06:40:18.179Z,6.00
2018-11-25T06:42:47.513Z,6.10
2018-11-25T06:45:20.234Z,6.00
2018-11-25T06:47:49.398Z,6.10
2018-11-25T06:50:18.754Z,6.00
2018-11-25T06:52:47.862Z,6.10
2018-11-25T06:55:16.973Z,6.10
2018-11-25T06:57:45.760Z,6.00
2018-11-25T07:00:18.740Z,6.00
2018-11-25T07:02:48.010Z,6.10
2018-11-25T07:05:17.278Z,6.10
2018-11-25T07:07:46.232Z,6.00
2018-11-25T07:10:18.543Z,6.10
2018-11-25T07:12:48.365Z,6.00
2018-11-25T07:15:18.680Z,6.00
2018-11-25T07:17:47.766Z,6.00
2018-11-25T07:20:17.821Z,6.10
2018-11-25T07:22:47.022Z,6.10
2018-11-25T07:25:17.774Z,6.10
2018-11-25T07:27:48.109Z,6.10
2018-11-25T07:30:23.344Z,6.10
2018-11-25T07:32:52.873Z,6.10
2018-11-25T07:35:22.299Z,6.10
2018-11-25T07:37:51.297Z,6.10
2018-11-25T07:40:20.912Z,6.00
2018-11-25T07:42:50.942Z,6.00
2018-11-25T07:45:20.785Z,6.00
2018-11-25T07:47:49.977Z,6.00
2018-11-25T07:50:19.294Z,5.90
2018-11-25T07:52:48.693Z,5.90
2018-11-25T07:55:18.425Z,5.90
2018-11-25T07:57:47.604Z,5.90
2018-11-25T08:00:18.166Z,6.00
2018-11-25T08:02:47.444Z,5.90
2018-11-25T08:05:18.402Z,5.90
2018-11-25T08:07:47.635Z,6.00
2018-11-25T08:10:16.731Z,6.00
2018-11-25T08:12:46.261Z,6.00
2018-11-25T08:15:16.965Z,6.00
2018-11-25T08:17:45.965Z,6.00
2018-11-25T08:20:18.114Z,6.00
2018-11-25T08:22:47.537Z,6.00
2018-11-25T08:25:19.092Z,6.00
2018-11-25T08:27:48.357Z,6.10
2018-11-25T08:30:20.009Z,6.00
2018-11-25T08:32:49.226Z,6.10
2018-11-25T08:35:18.710Z,6.00
2018-11-25T08:37:48.210Z,6.00
2018-11-25T08:40:22.258Z,6.00
2018-11-25T08:42:51.927Z,6.10
2018-11-25T08:45:21.478Z,6.10
2018-11-25T08:47:51.666Z,6.10
2018-11-25T08:50:21.521Z,6.20
2018-11-25T08:52:52.930Z,6.10
2018-11-25T08:55:23.022Z,6.10
2018-11-25T08:57:52.156Z,6.10
2018-11-25T09:00:22.032Z,6.20
2018-11-25T09:02:51.681Z,6.20
2018-11-25T09:05:20.651Z,6.20
2018-11-25T09:07:49.873Z,6.20
2018-11-25T09:10:21.532Z,6.20
2018-11-25T09:12:56.038Z,6.20
2018-11-25T09:15:29.126Z,6.20
2018-11-25T09:17:58.415Z,6.20
2018-11-25T09:20:27.532Z,6.20
2018-11-25T09:22:56.782Z,6.20
2018-11-25T09:25:31.380Z,6.30
2018-11-25T09:28:01.505Z,6.40
2018-11-25T09:30:31.489Z,6.30
2018-11-25T09:33:00.690Z,6.30
2018-11-25T09:35:29.784Z,6.30
2018-11-25T09:37:59.295Z,6.40
2018-11-25T09:40:28.839Z,6.40
2018-11-25T09:42:58.388Z,6.40
2018-11-25T09:45:27.500Z,6.40
2018-11-25T09:47:56.677Z,6.40
2018-11-25T09:50:25.630Z,6.40
2018-11-25T09:52:55.048Z,6.40
2018-11-25T09:55:25.770Z,6.50
2018-11-25T09:58:00.444Z,6.50
2018-11-25T10:00:31.109Z,6.50
2018-11-25T10:03:00.063Z,6.50
2018-11-25T10:05:29.212Z,6.40
2018-11-25T10:07:58.518Z,6.50
2018-11-25T10:10:27.801Z,6.50
2018-11-25T10:12:57.055Z,6.50
2018-11-25T10:15:27.389Z,6.50
2018-11-25T10:17:59.781Z,6.50
2018-11-25T10:20:28.309Z,6.60
2018-11-25T10:22:57.289Z,6.60
2018-11-25T10:25:26.340Z,6.60
2018-11-25T10:27:56.213Z,6.70
2018-11-25T10:30:26.752Z,6.70
2018-11-25T10:33:02.018Z,6.60
2018-11-25T10:35:31.256Z,6.60
2018-11-25T10:38:00.196Z,6.70
2018-11-25T10:40:29.321Z,6.60
2018-11-25T10:42:58.350Z,6.60
2018-11-25T10:45:28.247Z,6.60
2018-11-25T10:47:57.909Z,6.70
2018-11-25T10:50:27.840Z,6.80
2018-11-25T10:52:57.047Z,6.80
2018-11-25T10:55:26.417Z,6.80
2018-11-25T10:57:55.640Z,6.80
2018-11-25T11:02:33.470Z,6.80
2018-11-25T11:05:04.745Z,6.90
2018-11-25T11:07:39.926Z,7.10
2018-11-25T11:10:09.959Z,7.10
2018-11-25T11:12:38.830Z,7.10
2018-11-25T11:15:10.073Z,7.00
2018-11-25T11:17:39.410Z,7.10
2018-11-25T11:20:09.840Z,7.00
2018-11-25T11:22:39.207Z,7.10
2018-11-25T11:25:09.271Z,7.10
2018-11-25T11:27:38.801Z,7.10
2018-11-25T11:30:10.465Z,7.10
2018-11-25T11:32:44.744Z,7.00
2018-11-25T11:35:13.938Z,6.90
2018-11-25T11:37:43.085Z,6.80
2018-11-25T11:40:13.619Z,6.80
2018-11-25T11:42:43.011Z,6.70
2018-11-25T11:45:13.034Z,6.70
2018-11-25T11:47:42.879Z,6.70
2018-11-25T11:50:14.573Z,6.70
2018-11-25T11:52:44.118Z,6.70
2018-11-25T11:55:14.568Z,6.60
2018-11-25T11:57:44.893Z,6.60
2018-11-25T12:00:23.046Z,6.60
2018-11-25T12:02:52.449Z,6.70
2018-11-25T12:05:21.892Z,6.70
2018-11-25T12:07:51.100Z,6.70
2018-11-25T12:10:20.381Z,6.80
2018-11-25T12:12:49.299Z,6.80
2018-11-25T12:15:21.030Z,6.90
2018-11-25T12:17:50.082Z,6.90
2018-11-25T12:20:21.388Z,6.90
2018-11-25T12:22:49.182Z,7.00
2018-11-25T12:25:18.952Z,7.00
2018-11-25T12:27:48.461Z,7.00
2018-11-25T12:30:17.705Z,7.00
2018-11-25T12:32:47.882Z,7.10
2018-11-25T12:35:18.240Z,7.10
2018-11-25T12:37:47.172Z,7.10
2018-11-25T12:40:18.108Z,7.10
2018-11-25T12:42:49.486Z,7.20
2018-11-25T12:45:19.113Z,7.20
2018-11-25T12:47:47.893Z,7.20
2018-11-25T12:50:20.776Z,7.20
2018-11-25T12:52:49.897Z,7.20
2018-11-25T12:55:21.118Z,7.30
2018-11-25T12:57:50.684Z,7.30
2018-11-25T13:00:23.011Z,7.30
2018-11-25T13:02:52.256Z,7.20
2018-11-25T13:05:21.433Z,7.30
2018-11-25T13:07:50.829Z,7.20
2018-11-25T13:10:20.573Z,7.20
2018-11-25T13:12:49.537Z,7.30
2018-11-25T13:15:18.813Z,7.30
2018-11-25T13:17:48.333Z,7.30
2018-11-25T13:20:17.693Z,7.30
2018-11-25T13:22:47.082Z,7.30
2018-11-25T13:25:16.994Z,7.30
2018-11-25T13:27:46.664Z,7.30
2018-11-25T13:30:22.872Z,7.20
2018-11-25T13:32:53.239Z,7.20
2018-11-25T13:35:22.678Z,7.20
2018-11-25T13:37:51.996Z,7.30
2018-11-25T13:40:21.453Z,7.20
2018-11-25T13:42:50.726Z,7.30
2018-11-25T13:45:19.850Z,7.30
2018-11-25T13:47:49.458Z,7.30
2018-11-25T13:50:18.933Z,7.30
2018-11-25T13:52:48.221Z,7.30
2018-11-25T13:55:19.333Z,7.30
2018-11-25T13:57:48.893Z,7.30
2018-11-25T14:00:24.991Z,7.30
2018-11-25T14:02:54.815Z,7.30
2018-11-25T14:05:24.169Z,7.40
2018-11-25T14:07:53.317Z,7.50
2018-11-25T14:10:25.541Z,7.60
2018-11-25T14:12:54.362Z,7.50
2018-11-25T14:15:23.917Z,7.40
2018-11-25T14:17:53.247Z,7.50
2018-11-25T14:20:22.351Z,7.60
2018-11-25T14:22:51.743Z,7.60
2018-11-25T14:25:21.834Z,7.60
2018-11-25T14:27:53.681Z,7.50
2018-11-25T14:30:24.510Z,7.50
2018-11-25T14:32:53.737Z,7.50
2018-11-25T14:35:22.780Z,7.50
2018-11-25T14:37:51.754Z,7.40
2018-11-25T14:40:21.122Z,7.40
2018-11-25T14:42:50.477Z,7.30
2018-11-25T14:45:20.141Z,7.30
2018-11-25T14:47:51.406Z,7.30
2018-11-25T14:50:20.953Z,7.30
2018-11-25T14:52:53.193Z,7.30
2018-11-25T14:55:22.495Z,7.20
2018-11-25T14:57:52.563Z,7.20
2018-11-25T15:00:22.956Z,7.30
2018-11-25T15:02:54.549Z,7.20
2018-11-25T15:05:28.349Z,7.20
2018-11-25T15:07:57.768Z,7.20
2018-11-25T15:10:27.304Z,7.20
2018-11-25T15:12:56.311Z,7.30
2018-11-25T15:15:25.202Z,7.20
2018-11-25T15:17:56.315Z,7.10
2018-11-25T15:20:25.754Z,7.00
2018-11-25T15:22:57.737Z,6.90
2018-11-25T15:25:28.853Z,6.80
2018-11-25T15:27:58.734Z,6.80
2018-11-25T15:30:28.121Z,6.80
2018-11-25T15:32:57.258Z,6.70
2018-11-25T15:35:26.445Z,6.70
2018-11-25T15:37:56.833Z,6.70
2018-11-25T15:40:29.102Z,6.70
2018-11-25T15:42:59.041Z,6.70
2018-11-25T15:45:28.250Z,6.70
2018-11-25T15:48:11.785Z,6.70
2018-11-25T15:50:40.882Z,6.80
2018-11-25T15:53:11.078Z,6.80
2018-11-25T15:55:40.894Z,6.80
2018-11-25T15:58:10.514Z,6.80
2018-11-25T16:00:39.976Z,6.80
2018-11-25T16:03:10.693Z,6.80
2018-11-25T16:05:43.541Z,6.70
2018-11-25T16:08:12.645Z,6.60
2018-11-25T16:10:42.007Z,6.70
2018-11-25T16:13:11.040Z,6.70
2018-11-25T16:15:40.225Z,6.80
2018-11-25T16:18:09.454Z,6.80
2018-11-25T16:20:38.635Z,6.80
2018-11-25T16:23:11.563Z,6.80
2018-11-25T16:25:49.452Z,6.90
2018-11-25T16:28:24.273Z,6.90
2018-11-25T16:30:53.557Z,6.80
2018-11-25T16:33:22.877Z,6.80
2018-11-25T16:35:51.976Z,6.70
2018-11-25T16:38:21.194Z,6.70
2018-11-25T16:40:50.673Z,6.80
2018-11-25T16:43:21.972Z,6.80
2018-11-25T16:45:50.953Z,6.80
2018-11-25T16:48:20.112Z,6.80
2018-11-25T16:50:49.482Z,6.70
2018-11-25T16:53:18.921Z,6.70
2018-11-25T16:55:48.143Z,6.80
2018-11-25T16:58:17.420Z,6.80
2018-11-25T17:00:46.861Z,6.80
2018-11-25T17:03:16.049Z,6.80
2018-11-25T17:05:48.115Z,6.70
2018-11-25T17:08:23.592Z,6.60
2018-11-25T17:10:52.699Z,6.60
2018-11-25T17:13:22.179Z,6.60
2018-11-25T17:15:51.811Z,6.60
2018-11-25T17:18:21.127Z,6.60
2018-11-25T17:20:50.349Z,6.50
2018-11-25T17:23:19.686Z,6.50
2018-11-25T17:25:49.087Z,6.60
2018-11-25T17:28:18.981Z,6.50
2018-11-25T17:30:47.953Z,6.40
2018-11-25T17:33:17.066Z,6.40
2018-11-25T17:35:46.159Z,6.40
2018-11-25T17:38:15.805Z,6.30
2018-11-25T17:40:45.053Z,6.40
2018-11-25T17:43:16.278Z,6.40
2018-11-25T17:45:45.253Z,6.30
2018-11-25T17:48:14.359Z,6.30
2018-11-25T17:50:43.232Z,6.30
2018-11-25T17:53:12.532Z,6.30
2018-11-25T17:55:41.658Z,6.30
2018-11-25T17:58:10.975Z,6.20
2018-11-25T18:00:51.406Z,6.20
2018-11-25T18:03:28.517Z,6.10
2018-11-25T18:05:57.627Z,6.30
2018-11-25T18:08:26.894Z,6.30
2018-11-25T18:10:56.026Z,6.30
2018-11-25T18:13:28.064Z,6.30
2018-11-25T18:15:58.565Z,6.20
2018-11-25T18:18:32.947Z,6.20
2018-11-25T18:21:03.455Z,6.30
2018-11-25T18:23:32.478Z,6.20
2018-11-25T18:26:01.487Z,6.30
2018-11-25T18:28:30.999Z,6.30
2018-11-25T18:30:59.860Z,6.20
2018-11-25T18:33:29.405Z,6.30
2018-11-25T18:35:58.515Z,6.20
2018-11-25T18:38:27.774Z,6.40
2018-11-25T18:40:57.317Z,6.30
2018-11-25T18:43:26.810Z,6.30
2018-11-25T18:45:59.347Z,6.30
2018-11-25T18:48:25.358Z,6.30
2018-11-25T18:50:54.569Z,6.20
2018-11-25T18:53:24.019Z,6.30
2018-11-25T18:55:51.915Z,6.30
2018-11-25T18:58:20.832Z,6.20
2018-11-25T19:00:53.466Z,6.20
2018-11-25T19:03:22.452Z,6.20
2018-11-25T19:05:51.647Z,6.20
2018-11-25T19:08:21.063Z,6.20
2018-11-25T19:10:50.432Z,6.10
2018-11-25T19:13:19.734Z,6.10
2018-11-25T19:15:48.695Z,6.00
2018-11-25T19:18:17.774Z,6.00
2018-11-25T19:20:47.033Z,6.00
2018-11-25T19:23:16.234Z,5.90
2018-11-25T19:25:45.309Z,6.00
2018-11-25T19:28:14.329Z,5.90
2018-11-25T19:30:43.292Z,6.00
2018-11-25T19:33:12.568Z,6.00
2018-11-25T19:35:41.934Z,6.00
2018-11-25T19:38:10.983Z,6.00
2018-11-25T19:40:40.013Z,6.00
2018-11-25T19:43:09.574Z,6.00
2018-11-25T19:45:38.951Z,6.00
2018-11-25T19:48:08.412Z,5.90
2018-11-25T19:50:45.581Z,6.00
2018-11-25T19:53:14.701Z,6.00
2018-11-25T19:55:43.663Z,6.00
2018-11-25T19:58:12.714Z,6.00
2018-11-25T20:00:41.992Z,6.00
2018-11-25T20:03:11.474Z,5.90
2018-11-25T20:05:40.685Z,5.90
2018-11-25T20:08:09.575Z,5.90
2018-11-25T20:10:38.624Z,5.90
2018-11-25T20:13:09.383Z,5.90
2018-11-25T20:15:39.078Z,5.90
2018-11-25T20:18:09.492Z,5.90
2018-11-25T20:20:38.727Z,5.90
2018-11-25T20:23:24.596Z,5.90
2018-11-25T20:25:53.788Z,5.90
2018-11-25T20:28:23.048Z,6.00
2018-11-25T20:30:52.291Z,5.90
2018-11-25T20:33:26.735Z,6.00
2018-11-25T20:35:56.144Z,6.00
2018-11-25T20:38:30.404Z,5.90
2018-11-25T20:40:59.508Z,6.00
2018-11-25T20:43:28.513Z,6.00
2018-11-25T20:46:02.525Z,5.90
2018-11-25T20:48:32.269Z,6.00
2018-11-25T20:51:01.628Z,6.00
2018-11-25T20:53:35.890Z,6.00
2018-11-25T20:56:05.053Z,6.10
2018-11-25T20:58:34.478Z,6.00
2018-11-25T21:01:03.899Z,5.90
2018-11-25T21:03:32.861Z,5.90
2018-11-25T21:06:02.107Z,5.90
2018-11-25T21:08:31.020Z,6.00
2018-11-25T21:11:00.165Z,6.00
2018-11-25T21:13:28.991Z,5.90
2018-11-25T21:15:58.503Z,5.80
2018-11-25T21:18:27.745Z,5.80
2018-11-25T21:20:56.982Z,5.80
2018-11-25T21:23:26.205Z,5.80
2018-11-25T21:25:55.479Z,5.80
2018-11-25T21:28:24.380Z,5.90
2018-11-25T21:30:53.601Z,5.90
2018-11-25T21:33:22.529Z,5.90
2018-11-25T21:35:51.552Z,5.90
2018-11-25T21:38:21.391Z,5.90
2018-11-25T21:40:50.306Z,5.80
2018-11-25T21:43:19.625Z,5.70
2018-11-25T21:45:48.720Z,5.50
2018-11-25T21:48:18.061Z,5.40
2018-11-25T21:50:47.351Z,5.30
2018-11-25T21:53:16.776Z,5.30
2018-11-25T21:55:46.375Z,5.20
2018-11-25T21:58:15.720Z,5.10
2018-11-25T22:00:44.804Z,5.00
2018-11-25T22:03:14.158Z,5.00
2018-11-25T22:05:43.434Z,5.00
2018-11-25T22:08:12.725Z,4.80
2018-11-25T22:10:42.094Z,4.80
2018-11-25T22:13:11.336Z,4.70
2018-11-25T22:15:40.778Z,4.60
2018-11-25T22:18:10.083Z,4.50
2018-11-25T22:20:39.257Z,4.50
2018-11-25T22:23:08.354Z,4.40
2018-11-25T22:25:37.822Z,4.30
2018-11-25T22:28:07.591Z,4.20
2018-11-25T22:30:36.869Z,4.10
2018-11-25T22:33:06.683Z,4.00
2018-11-25T22:35:36.921Z,3.90
2018-11-25T22:38:06.701Z,3.80
2018-11-25T22:40:36.127Z,3.70
2018-11-25T22:43:05.529Z,3.50
2018-11-25T22:45:34.866Z,3.40
2018-11-25T22:48:04.502Z,3.60
2018-11-25T22:50:33.739Z,3.60
2018-11-25T22:53:02.831Z,3.60
2018-11-25T22:55:32.245Z,3.40
2018-11-25T22:58:01.320Z,3.40
2018-11-25T23:00:36.570Z,3.20
2018-11-25T23:03:06.160Z,3.30
2018-11-25T23:05:46.299Z,3.30
2018-11-25T23:08:16.341Z,3.40
2018-11-25T23:10:45.666Z,3.40
2018-11-25T23:13:15.163Z,3.50
2018-11-25T23:15:44.486Z,3.50
2018-11-25T23:18:13.911Z,3.60
2018-11-25T23:20:43.179Z,3.70
2018-11-25T23:23:12.352Z,3.70
2018-11-25T23:25:41.666Z,3.70
2018-11-25T23:28:11.034Z,3.80
2018-11-25T23:30:39.988Z,3.80
2018-11-25T23:33:09.214Z,3.90
2018-11-25T23:35:38.121Z,3.90
2018-11-25T23:38:07.476Z,3.90
2018-11-25T23:40:36.558Z,4.00
2018-11-25T23:43:05.991Z,4.10
2018-11-25T23:45:35.375Z,4.10
2018-11-25T23:48:04.834Z,4.10
2018-11-25T23:50:33.981Z,4.20
2018-11-25T23:53:03.391Z,4.10
2018-11-25T23:55:32.719Z,4.00
2018-11-25T23:58:01.988Z,4.00
